Angler Guide Weather for Moosonee -
Moosonee, Ontario Current Weather Conditions
Enter your "Place, State", US Zip Code or ICAO:  
Forecast Information Radar Information
Moosonee, Ontario, Canada  Lat: 51.27N, Lon: 80.58W
ICAO Used: CYKQ
Current Conditions
Updated:
Sun & Moon Information:
Temp: N/A
Humidity: N/A
Wind Speed: N/A
Barometer: N/A
Dewpoint: N/A
Heat Index: N/A
Wind Chill: N/A
Civil Twilight: 7:40 AM EST
Moonrise: 6:24 AM EST Moon Phase:
Waning Crescent Moon
Waning Crescent Moon
Moonset: 3:43 PM EST
Sunrise: 8:20 AM EST
Sunset: 4:14 PM EST
Civil Twilight: 4:53 PM EST
Forecast for Moosonee, ON:
(Forecast based on TAF for )
1039 AM EST MON NOV 06 2006
  
MORNINGAFTERNOON
LIGHT SNOWLIGHT SNOW
Light
Snow
Light
Snow
TAF based forecast:
Dated: 1039 AM EST MON NOV 06 2006
Morning...Overcast. Windy with winds from the south at 17 mphand gusts up to 29 mph. Then a 30 percent chance of light snow. Possible periods of overcast with light snow.
Afternoon...A 30 percent chance of light snow. Possible periods of overcast with light snow.
Original Encoded TAF:
Dated: 1039 AM EST MON NOV 06 2006
2006/11/06 15:39
CYKQ 061539Z 061622 18015G25KT P6SM SCT040 BKN080 OVC200 TEMPO 1619 2SM -SN -PL OVC040 PROB30 1619 1SM -SN VV010=




Powered by Angler Guide.com
Copyright 2007, all rights reserved.